Архив погоды на Остров Спафарьева

Метеограмма Остров Спафарьева
Вторник, 19 Июня
Время местн. Темп Ветер Видим Явления Облачность нижн/средн/верх Атм. давл. Влжн Точка росы ВНГО R Сост. почвы Tg s
Напр Скр Прв ур.ст ур.м изм
07:00 +4.9° С-З 6 - 50 км - облачно 757 762 +0.1 90% +3.4° 300 м 0 Сухая (без трещин) - -
04:00 +4.2° С-З 7 10 более 50 км - облачно 757 762 -0.1 90% +2.7° 300 м - - - -
01:00 +4.4° С-З 7 10 более 50 км - облачно 757 762 0 90% +2.9° 300 м - - - -
Понедельник, 18 Июня
Время местн. Темп Ветер Видим Явления Облачность нижн/средн/верх Атм. давл. Влжн Точка росы ВНГО R Сост. почвы Tg s
Напр Скр Прв ур.ст ур.м изм
22:00 +4.5° С-З 7 12 более 50 км - облачно 757 762 +0.4 91% +3.2° 300 м - - - -
19:00 +4.9° С-З 7 10 более 50 км - облачно 757 762 +0.1 91% +3.6° 300 м 0 - - -
16:00 +7.4° С-З 6 - более 50 км небо без изменений {туман} преимущественно облачно 757 762 -0.5 83% +4.7° 300 м - - - -
13:00 +6.3° С-З 4 - более 50 км туман облачно 758 762 -0.4 87% +4.3° 300 м - - - -
10:00 +5.4° С,С-З 3 - 0.5 км туман ослабевает неба не видно 758 763 +0.3 95% +4.7° - - - - -
07:00 +4.7° С,С-З 3 - 0.2 км туман усиливается неба не видно 758 762 +0.2 97% +4.3° - 0 Сухая (без трещин) - -
04:00 +4.2° З,С-З 2 - более 50 км - облачно 757 762 -0.1 95% +3.5° 300 м - - - -
01:00 +4.7° З 2 - более 50 км - облачно 758 762 -0.2 93% +3.7° 300 м - - - -
Воскресенье, 17 Июня
Время местн. Темп Ветер Видим Явления Облачность нижн/средн/верх Атм. давл. Влжн Точка росы ВНГО R Сост. почвы Tg s
Напр Скр Прв ур.ст ур.м изм
22:00 +5.5° штиль 0 - 50 км - преимущественно облачно 758 762 +0.3 89% +3.9° 300 м - - - -
19:00 +6.2° Ю,Ю-В 2 - 50 км - преимущественно облачно 757 762 0 91% +4.8° 300 м 0 - - -
16:00 +6.1° Ю-В 3 - более 50 км - облачно 757 762 -0.1 91% +4.7° 300 м - - - -
13:00 +6.3° Ю,Ю-В 1 - 50 км - облачно 757 762 +0.3 89% +4.6° 300 м - - - -
10:00 +5.9° Ю 2 - 50 км небо без изменений {ливневые осадки} облачно 757 762 +0.6 89% +4.2° 300 м - - - -
07:00 +5.3° Ю 2 - более 50 км небо без изменений {ливневые осадки} облачно 757 761 +0.5 92% +4.1° 300 м 0.7 Влажная (без луж) +5° -
04:00 +4.8° Ю 2 27 10 км слабый ливневый дождь облачно 756 761 +0.2 95% +4° 300 м - - - -
01:00 +4.7° З 2 - более 50 км - облачно 756 761 +0.1 92% +3.5° 300 м - - - -
Суббота, 16 Июня
Время местн. Темп Ветер Видим Явления Облачность нижн/средн/верх Атм. давл. Влжн Точка росы ВНГО R Сост. почвы Tg s
Напр Скр Прв ур.ст ур.м изм
22:00 +4.8° З,С-З 4 - более 50 км - облачно 756 761 +0.2 92% +3.6° 300 м - - - -
19:00 +5.5° З,С-З 5 - более 50 км - преимущественно облачно 756 760 -0.2 88% +3.7° 300 м 0 - - -
16:00 +6° З 3 - более 50 км - облачно 756 761 -0.2 89% +4.3° 300 м - - - -
13:00 +6.1° З,С-З 4 - 50 км - облачно 756 761 -0.2 91% +4.8° 300 м - - - -
10:00 +6° З,С-З 7 10 более 50 км - облачно 756 761 -0.2 93% +5° 300 м - - - -
07:00 +5.9° З,С-З 7 11 более 50 км - облачно 757 761 -0.4 92% +4.7° 600 м 0 Сухая (без трещин) +5° -
04:00 +5.6° З,С-З 8 10 50 км - облачно 757 762 -0.7 93% +4.6° 600 м - - - -